Terminal Aerodrome Forecast
Issued by NWS Quad Cities IA IL

Home | Current Version | Previous Version | Text Only | Print | Product List | Glossary On
Versions: 1 2 3 4 5 6 7 8 9 10 11 12 13 14 15 16 17
910
FTUS43 KDVN 250742 AAA
TAFDBQ
TAF AMD
KDBQ 250742Z 2508/2606 01011KT P6SM BKN100
      TEMPO 2508/2510 BKN025
     FM251500 03009KT P6SM SCT250
     FM260000 36004KT P6SM SKC=

USA.gov is the U.S. government's official web portal to all federal, state and local government web resources and services.